Time;durP1;ratioP1;P1;durP2;ratioP2;P2;SDS_P1;SDS_P2;PMS_P1;PMS_P2;Temp;Humidity;BMP_temperature;BMP_pressure;BME280_temperature;BME280_humidity;BME280_pressure;Samples;Min_cycle;Max_cycle;Signal;HPM_P1;HPM_P2
2023/08/22 00:01:04;;;;;;;5.18;2.70;;;;;;;;;;4977093;28;20379;-67
2023/08/22 00:03:31;;;;;;;5.63;2.72;;;;;;;;;;4977264;28;20365;-66
2023/08/22 00:05:57;;;;;;;4.25;2.40;;;;;;;;;;4977144;28;20104;-66
2023/08/22 00:08:25;;;;;;;4.93;2.40;;;;;;;;;;4975701;28;20495;-67
2023/08/22 00:10:51;;;;;;;6.53;2.90;;;;;;;;;;4977039;28;20487;-67
2023/08/22 00:13:17;;;;;;;3.90;2.33;;;;;;;;;;4977101;28;20043;-67
2023/08/22 00:15:46;;;;;;;5.03;2.90;;;;;;;;;;4976649;28;20488;-67
2023/08/22 00:18:12;;;;;;;4.53;2.38;;;;;;;;;;4976998;28;20023;-66
2023/08/22 00:20:39;;;;;;;5.15;2.00;;;;;;;;;;4977199;28;20026;-66
2023/08/22 00:23:05;;;;;;;8.30;2.63;;;;;;;;;;4976821;28;20023;-66
2023/08/22 00:25:31;;;;;;;5.40;2.67;;;;;;;;;;4976986;28;20041;-67
2023/08/22 00:27:58;;;;;;;5.57;2.75;;;;;;;;;;4976920;28;20044;-67
2023/08/22 00:30:24;;;;;;;5.20;2.50;;;;;;;;;;4976753;28;20069;-67
2023/08/22 00:32:50;;;;;;;6.40;2.53;;;;;;;;;;4976929;28;20019;-66
2023/08/22 00:35:17;;;;;;;3.35;2.42;;;;;;;;;;4976790;28;20023;-66
2023/08/22 00:37:43;;;;;;;5.88;2.42;;;;;;;;;;4976782;28;20026;-66
2023/08/22 00:40:10;;;;;;;7.60;2.60;;;;;;;;;;4976579;28;20027;-67
2023/08/22 00:42:36;;;;;;;5.82;2.80;;;;;;;;;;4976583;28;20027;-67
2023/08/22 00:45:03;;;;;;;7.97;2.65;;;;;;;;;;4975147;28;20038;-66
2023/08/22 00:47:29;;;;;;;5.70;2.67;;;;;;;;;;4976381;28;20065;-66
2023/08/22 00:49:56;;;;;;;7.30;2.65;;;;;;;;;;4976299;28;20490;-66
2023/08/22 00:52:22;;;;;;;6.22;2.78;;;;;;;;;;4976334;28;20507;-67
2023/08/22 00:54:49;;;;;;;7.45;2.80;;;;;;;;;;4976253;28;20033;-66
2023/08/22 00:57:15;;;;;;;7.65;2.75;;;;;;;;;;4976536;28;20052;-67
2023/08/22 00:59:42;;;;;;;3.58;2.70;;;;;;;;;;4975899;28;20390;-67
2023/08/22 01:02:08;;;;;;;4.50;3.05;;;;;;;;;;4976102;28;20037;-66
2023/08/22 01:04:35;;;;;;;5.75;3.17;;;;;;;;;;4975953;28;20023;-66
2023/08/22 01:07:16;;;;;;;8.70;3.28;;;;;;;;;;4975507;28;20042;-66
2023/08/22 01:10:01;;;;;;;7.45;2.67;;;;;;;;;;4975992;28;20041;-67
2023/08/22 01:12:43;;;;;;;3.38;2.75;;;;;;;;;;4974424;28;20085;-66
2023/08/22 01:15:10;;;;;;;4.53;2.67;;;;;;;;;;4975946;28;20019;-67
2023/08/22 01:17:37;;;;;;;4.38;3.00;;;;;;;;;;4976403;28;20065;-67
2023/08/22 01:20:04;;;;;;;8.43;2.88;;;;;;;;;;4975833;28;20496;-66
2023/08/22 01:22:31;;;;;;;6.38;2.53;;;;;;;;;;4975598;28;20035;-66
2023/08/22 01:24:57;;;;;;;7.75;3.20;;;;;;;;;;4975829;28;20371;-66
2023/08/22 01:27:27;;;;;;;11.70;2.83;;;;;;;;;;4975391;28;20031;-66
2023/08/22 01:29:59;;;;;;;11.37;3.60;;;;;;;;;;4975837;28;20023;-66
2023/08/22 01:32:30;;;;;;;5.35;2.83;;;;;;;;;;4975802;28;20274;-67
2023/08/22 01:35:01;;;;;;;5.75;3.00;;;;;;;;;;4975941;28;20033;-66
2023/08/22 01:37:29;;;;;;;5.43;3.40;;;;;;;;;;4975517;28;20538;-67
2023/08/22 01:39:56;;;;;;;7.55;2.88;;;;;;;;;;4975418;28;20030;-67
2023/08/22 01:42:26;;;;;;;7.50;3.38;;;;;;;;;;4975070;28;20403;-66
2023/08/22 01:44:52;;;;;;;5.35;3.13;;;;;;;;;;4975662;28;20041;-66
2023/08/22 01:47:18;;;;;;;6.18;3.00;;;;;;;;;;4975261;28;20391;-66
2023/08/22 01:49:45;;;;;;;7.85;2.92;;;;;;;;;;4975573;28;20037;-66
2023/08/22 01:52:11;;;;;;;7.50;2.90;;;;;;;;;;4975213;28;20026;-66
2023/08/22 01:54:38;;;;;;;8.02;2.95;;;;;;;;;;4974973;28;20033;-66
2023/08/22 01:57:05;;;;;;;7.72;3.30;;;;;;;;;;4974871;28;20027;-66
2023/08/22 01:59:31;;;;;;;6.35;2.78;;;;;;;;;;4975265;28;20049;-66
2023/08/22 02:01:57;;;;;;;9.80;3.30;;;;;;;;;;4975214;28;20029;-66
2023/08/22 02:04:24;;;;;;;6.82;2.90;;;;;;;;;;4974866;28;20562;-66
2023/08/22 02:06:50;;;;;;;5.07;3.20;;;;;;;;;;4974691;28;20089;-66
2023/08/22 02:09:17;;;;;;;5.90;3.33;;;;;;;;;;4974784;28;20031;-68
2023/08/22 02:11:43;;;;;;;9.00;3.60;;;;;;;;;;4974817;28;20034;-66
2023/08/22 02:14:09;;;;;;;4.75;3.40;;;;;;;;;;4974662;28;20019;-67
2023/08/22 02:16:36;;;;;;;5.65;3.20;;;;;;;;;;4974374;28;20484;-66
2023/08/22 02:19:02;;;;;;;6.25;3.28;;;;;;;;;;4974470;28;20395;-66
2023/08/22 02:21:29;;;;;;;5.88;3.67;;;;;;;;;;4974624;28;20027;-66
2023/08/22 02:23:56;;;;;;;4.57;2.80;;;;;;;;;;4974593;28;20484;-66
2023/08/22 02:26:22;;;;;;;6.70;3.30;;;;;;;;;;4974318;28;20037;-66
2023/08/22 02:28:50;;;;;;;7.47;3.75;;;;;;;;;;4974425;28;20276;-66
2023/08/22 02:31:16;;;;;;;10.25;3.22;;;;;;;;;;4974893;28;20019;-66
2023/08/22 02:33:43;;;;;;;4.90;2.90;;;;;;;;;;4974665;28;20030;-66
2023/08/22 02:36:09;;;;;;;8.77;3.83;;;;;;;;;;4974764;28;20037;-66
2023/08/22 02:38:35;;;;;;;7.20;3.60;;;;;;;;;;4974742;28;20019;-68
2023/08/22 02:41:02;;;;;;;5.22;3.25;;;;;;;;;;4974030;28;20383;-66
2023/08/22 02:43:30;;;;;;;10.95;3.70;;;;;;;;;;4974120;28;20491;-66
2023/08/22 02:45:56;;;;;;;7.63;3.28;;;;;;;;;;4974163;28;20039;-66
2023/08/22 02:48:23;;;;;;;5.50;3.35;;;;;;;;;;4974291;28;20027;-66
2023/08/22 02:50:50;;;;;;;7.97;3.15;;;;;;;;;;4974361;28;20394;-68
2023/08/22 02:53:16;;;;;;;9.63;3.83;;;;;;;;;;4974174;28;20451;-66
2023/08/22 02:55:47;;;;;;;10.77;3.45;;;;;;;;;;4973874;28;20037;-66
2023/08/22 02:58:13;;;;;;;7.97;3.70;;;;;;;;;;4974080;28;20483;-66
2023/08/22 03:00:39;;;;;;;6.35;3.38;;;;;;;;;;4972985;28;20480;-66
2023/08/22 03:03:05;;;;;;;5.80;3.40;;;;;;;;;;4974003;28;20514;-66
2023/08/22 03:05:32;;;;;;;8.50;3.90;;;;;;;;;;4974014;28;20047;-66
2023/08/22 03:07:58;;;;;;;7.53;4.03;;;;;;;;;;4973693;28;20046;-66
2023/08/22 03:10:24;;;;;;;11.95;3.80;;;;;;;;;;4972381;28;20019;-66
2023/08/22 03:12:51;;;;;;;5.72;3.75;;;;;;;;;;4973809;28;20100;-66
2023/08/22 03:15:17;;;;;;;6.65;3.40;;;;;;;;;;4973920;28;20486;-66
2023/08/22 03:17:43;;;;;;;6.80;3.67;;;;;;;;;;4974091;28;20033;-69
2023/08/22 03:20:10;;;;;;;6.20;4.00;;;;;;;;;;4973731;28;20037;-66
2023/08/22 03:22:36;;;;;;;11.45;4.00;;;;;;;;;;4973787;28;20468;-66
2023/08/22 03:25:02;;;;;;;6.97;4.07;;;;;;;;;;4973859;28;20042;-66
2023/08/22 03:27:30;;;;;;;7.78;3.28;;;;;;;;;;4973632;28;20518;-67
2023/08/22 03:29:56;;;;;;;7.28;3.70;;;;;;;;;;4973525;28;20027;-66
2023/08/22 03:32:22;;;;;;;4.97;3.42;;;;;;;;;;4973761;28;20019;-66
2023/08/22 03:34:48;;;;;;;6.28;3.60;;;;;;;;;;4973553;28;20027;-66
2023/08/22 03:37:15;;;;;;;8.35;3.90;;;;;;;;;;4972434;28;20041;-67
2023/08/22 03:39:41;;;;;;;5.70;3.90;;;;;;;;;;4973554;28;20077;-66
2023/08/22 03:42:07;;;;;;;5.13;3.67;;;;;;;;;;4973489;28;20019;-66
2023/08/22 03:44:34;;;;;;;7.95;3.58;;;;;;;;;;4973626;28;20037;-66
2023/08/22 03:47:00;;;;;;;5.32;3.50;;;;;;;;;;4973369;28;20030;-68
2023/08/22 03:49:26;;;;;;;10.48;3.97;;;;;;;;;;4973566;28;20391;-68
2023/08/22 03:51:53;;;;;;;7.15;3.97;;;;;;;;;;4972248;28;20042;-68
2023/08/22 03:54:19;;;;;;;6.82;3.70;;;;;;;;;;4973436;28;20022;-68
2023/08/22 03:56:45;;;;;;;8.68;3.90;;;;;;;;;;4973684;28;20030;-68
2023/08/22 03:59:11;;;;;;;5.65;4.18;;;;;;;;;;4973390;28;20029;-68
2023/08/22 04:01:38;;;;;;;9.10;4.32;;;;;;;;;;4973359;28;20038;-67
2023/08/22 04:04:04;;;;;;;8.75;4.10;;;;;;;;;;4973881;28;20019;-68
2023/08/22 04:06:30;;;;;;;9.02;4.82;;;;;;;;;;4972586;28;20495;-68
2023/08/22 04:08:57;;;;;;;6.85;4.20;;;;;;;;;;4973429;28;20035;-68
2023/08/22 04:11:23;;;;;;;8.25;4.60;;;;;;;;;;4973736;28;20023;-68
2023/08/22 04:13:49;;;;;;;9.27;4.65;;;;;;;;;;4973668;28;20018;-68
2023/08/22 04:16:16;;;;;;;8.50;4.40;;;;;;;;;;4973383;28;20023;-68
2023/08/22 04:18:42;;;;;;;7.82;4.80;;;;;;;;;;4973234;28;20023;-68
2023/08/22 04:21:08;;;;;;;5.78;4.20;;;;;;;;;;4973222;28;20049;-68
2023/08/22 04:23:34;;;;;;;11.40;4.55;;;;;;;;;;4973217;28;20084;-68
2023/08/22 04:26:01;;;;;;;7.25;3.92;;;;;;;;;;4973064;28;20023;-68
2023/08/22 04:28:27;;;;;;;7.63;4.43;;;;;;;;;;4973559;28;20439;-68
2023/08/22 04:30:57;;;;;;;6.53;4.40;;;;;;;;;;4973027;28;20023;-68
2023/08/22 04:33:24;;;;;;;7.80;4.68;;;;;;;;;;4973369;28;20023;-68
2023/08/22 04:35:50;;;;;;;8.57;4.30;;;;;;;;;;4972886;28;20041;-68
2023/08/22 04:38:16;;;;;;;9.52;4.88;;;;;;;;;;4973498;28;20035;-68
2023/08/22 04:40:43;;;;;;;9.05;4.85;;;;;;;;;;4974512;28;20019;-68
2023/08/22 04:43:09;;;;;;;7.20;4.13;;;;;;;;;;4976617;28;20051;-68
2023/08/22 04:45:36;;;;;;;10.25;4.88;;;;;;;;;;4976585;28;20027;-68
2023/08/22 04:48:02;;;;;;;8.60;4.53;;;;;;;;;;4976381;28;20035;-68
2023/08/22 04:50:31;;;;;;;10.32;4.70;;;;;;;;;;4976635;28;20025;-68
2023/08/22 04:52:57;;;;;;;7.22;4.35;;;;;;;;;;4976463;28;20035;-67
2023/08/22 04:55:24;;;;;;;11.27;4.72;;;;;;;;;;4976618;28;20029;-67
2023/08/22 04:57:50;;;;;;;8.38;4.78;;;;;;;;;;4976463;28;20033;-67
2023/08/22 05:00:17;;;;;;;6.82;4.22;;;;;;;;;;4976373;28;20035;-67
2023/08/22 05:02:43;;;;;;;7.78;4.82;;;;;;;;;;4976298;28;20142;-68
2023/08/22 05:05:10;;;;;;;6.35;4.53;;;;;;;;;;4975811;28;20057;-67
2023/08/22 05:07:36;;;;;;;9.27;5.00;;;;;;;;;;4975800;28;20034;-67
2023/08/22 05:10:03;;;;;;;7.38;4.78;;;;;;;;;;4976381;28;20023;-68
2023/08/22 05:12:29;;;;;;;7.53;4.90;;;;;;;;;;4976028;28;20023;-68
2023/08/22 05:14:58;;;;;;;9.60;4.50;;;;;;;;;;4975979;28;20023;-68
2023/08/22 05:17:25;;;;;;;7.53;4.85;;;;;;;;;;4975706;28;20068;-68
2023/08/22 05:19:51;;;;;;;10.20;5.07;;;;;;;;;;4975876;28;20034;-68
2023/08/22 05:22:17;;;;;;;11.00;4.63;;;;;;;;;;4975752;28;20373;-68
2023/08/22 05:24:44;;;;;;;11.73;4.90;;;;;;;;;;4975838;28;20023;-67
2023/08/22 05:27:10;;;;;;;8.55;4.80;;;;;;;;;;4975669;28;20401;-68
2023/08/22 05:29:36;;;;;;;10.10;5.05;;;;;;;;;;4975748;28;20023;-69
2023/08/22 05:32:02;;;;;;;9.55;4.90;;;;;;;;;;4975703;28;20434;-68
2023/08/22 05:34:29;;;;;;;8.13;4.93;;;;;;;;;;4975263;28;20034;-68
2023/08/22 05:36:55;;;;;;;7.78;5.10;;;;;;;;;;4975644;28;20033;-68
2023/08/22 05:39:21;;;;;;;6.60;4.85;;;;;;;;;;4975538;28;20027;-68
2023/08/22 05:41:48;;;;;;;9.93;5.18;;;;;;;;;;4975452;28;20026;-69
2023/08/22 05:44:14;;;;;;;5.95;4.80;;;;;;;;;;4975669;28;20053;-68
2023/08/22 05:46:40;;;;;;;9.63;5.50;;;;;;;;;;4975265;28;20045;-68
2023/08/22 05:49:06;;;;;;;9.05;5.10;;;;;;;;;;4975067;28;20019;-68
2023/08/22 05:51:33;;;;;;;10.73;4.88;;;;;;;;;;4974629;28;20436;-68
2023/08/22 05:53:59;;;;;;;8.23;4.82;;;;;;;;;;4975120;28;20018;-68
2023/08/22 05:56:25;;;;;;;10.82;4.80;;;;;;;;;;4975198;28;20476;-68
2023/08/22 05:58:52;;;;;;;7.75;5.22;;;;;;;;;;4975611;28;20041;-68
2023/08/22 06:01:18;;;;;;;11.65;4.80;;;;;;;;;;4975029;28;20026;-68
2023/08/22 06:03:44;;;;;;;8.48;4.90;;;;;;;;;;4975025;28;20031;-68
2023/08/22 06:06:11;;;;;;;9.65;5.30;;;;;;;;;;4974883;28;20051;-68
2023/08/22 06:08:37;;;;;;;5.90;5.03;;;;;;;;;;4970004;28;20026;-76
2023/08/22 06:11:03;;;;;;;8.63;5.05;;;;;;;;;;4973653;28;20023;-76
2023/08/22 06:13:29;;;;;;;9.90;4.90;;;;;;;;;;4973845;28;20030;-76
2023/08/22 06:15:57;;;;;;;10.02;5.30;;;;;;;;;;4973481;28;20027;-76
2023/08/22 06:18:23;;;;;;;11.18;4.82;;;;;;;;;;4974086;28;20085;-76
2023/08/22 06:20:49;;;;;;;12.63;4.97;;;;;;;;;;4974600;28;20026;-76
2023/08/22 06:23:16;;;;;;;9.88;5.10;;;;;;;;;;4974193;28;20035;-76
2023/08/22 06:25:43;;;;;;;16.27;5.05;;;;;;;;;;4974303;28;20018;-76
2023/08/22 06:28:09;;;;;;;9.27;4.90;;;;;;;;;;4974037;28;20414;-76
2023/08/22 06:30:35;;;;;;;8.00;4.53;;;;;;;;;;4973778;28;20027;-76
2023/08/22 06:33:02;;;;;;;9.25;5.10;;;;;;;;;;4971756;28;20047;-76
2023/08/22 06:35:28;;;;;;;9.00;5.35;;;;;;;;;;4972325;28;20051;-76
2023/08/22 06:37:54;;;;;;;8.93;5.28;;;;;;;;;;4973363;28;20023;-76
2023/08/22 06:40:22;;;;;;;10.73;5.10;;;;;;;;;;4973897;28;20031;-75
2023/08/22 06:42:49;;;;;;;14.18;4.57;;;;;;;;;;4973609;28;20030;-75
2023/08/22 06:45:15;;;;;;;13.48;5.45;;;;;;;;;;4974068;28;20022;-76
2023/08/22 06:47:42;;;;;;;8.00;5.63;;;;;;;;;;4973615;28;20042;-76
2023/08/22 06:50:08;;;;;;;16.92;5.55;;;;;;;;;;4973893;28;20023;-76
2023/08/22 06:52:34;;;;;;;8.52;5.47;;;;;;;;;;4973929;28;20080;-74
2023/08/22 06:55:01;;;;;;;11.68;6.32;;;;;;;;;;4973753;28;20026;-75
2023/08/22 06:57:27;;;;;;;8.80;5.38;;;;;;;;;;4972490;28;20053;-75
2023/08/22 06:59:53;;;;;;;12.30;6.00;;;;;;;;;;4973104;28;20023;-76
2023/08/22 07:02:20;;;;;;;9.77;5.85;;;;;;;;;;4973183;28;20035;-76
2023/08/22 07:04:46;;;;;;;12.98;5.90;;;;;;;;;;4972755;28;20093;-75
2023/08/22 07:07:12;;;;;;;7.85;5.07;;;;;;;;;;4972004;28;20046;-76
2023/08/22 07:09:38;;;;;;;8.43;5.35;;;;;;;;;;4973720;28;20089;-76
2023/08/22 07:12:05;;;;;;;10.73;5.43;;;;;;;;;;4973578;28;20101;-76
2023/08/22 07:14:31;;;;;;;7.38;5.28;;;;;;;;;;4966302;28;20127;-74
2023/08/22 07:16:57;;;;;;;17.05;5.20;;;;;;;;;;4953939;28;20503;-75
2023/08/22 07:19:24;;;;;;;8.32;5.63;;;;;;;;;;4954521;29;20039;-75
2023/08/22 07:21:50;;;;;;;9.80;5.18;;;;;;;;;;4958578;28;20029;-76
2023/08/22 07:24:16;;;;;;;7.60;5.15;;;;;;;;;;4972702;28;20027;-74
2023/08/22 07:26:43;;;;;;;21.17;4.95;;;;;;;;;;4968856;28;20047;-76
2023/08/22 07:29:09;;;;;;;9.77;5.15;;;;;;;;;;4973616;28;20031;-76
2023/08/22 07:31:36;;;;;;;14.43;4.97;;;;;;;;;;4972106;28;20035;-68
2023/08/22 07:34:02;;;;;;;8.95;4.90;;;;;;;;;;4962451;28;20469;-69
2023/08/22 07:36:29;;;;;;;10.52;5.13;;;;;;;;;;4962673;28;20048;-66
2023/08/22 07:38:56;;;;;;;8.52;4.95;;;;;;;;;;4973127;28;20037;-68
2023/08/22 07:41:22;;;;;;;8.65;4.97;;;;;;;;;;4973339;28;20034;-68
2023/08/22 07:43:49;;;;;;;12.90;4.95;;;;;;;;;;4972849;28;20491;-68
2023/08/22 07:46:15;;;;;;;10.60;5.20;;;;;;;;;;4973282;28;20042;-68
2023/08/22 07:48:41;;;;;;;9.70;5.13;;;;;;;;;;4973304;28;20033;-68
2023/08/22 07:51:07;;;;;;;11.43;5.22;;;;;;;;;;4973185;28;20077;-67
2023/08/22 07:53:34;;;;;;;7.80;5.35;;;;;;;;;;4972927;28;20085;-68
2023/08/22 07:56:00;;;;;;;10.13;5.45;;;;;;;;;;4971452;28;20387;-68
2023/08/22 07:58:26;;;;;;;9.05;5.38;;;;;;;;;;4972858;28;20041;-68
2023/08/22 08:00:53;;;;;;;10.13;5.45;;;;;;;;;;4973000;28;20021;-68
2023/08/22 08:03:19;;;;;;;10.10;5.85;;;;;;;;;;4972540;28;20108;-69
2023/08/22 08:05:45;;;;;;;11.25;5.70;;;;;;;;;;4973009;28;20061;-68
2023/08/22 08:08:12;;;;;;;8.02;5.93;;;;;;;;;;4971380;28;20035;-69
2023/08/22 08:10:38;;;;;;;9.45;5.53;;;;;;;;;;4972616;28;20465;-69
2023/08/22 08:13:05;;;;;;;11.05;5.85;;;;;;;;;;4972274;28;20041;-69
2023/08/22 08:15:31;;;;;;;13.93;5.95;;;;;;;;;;4973212;28;20384;-69
2023/08/22 08:17:59;;;;;;;10.38;5.78;;;;;;;;;;4958042;28;20024;-69
2023/08/22 08:20:25;;;;;;;10.85;5.82;;;;;;;;;;4973116;28;20387;-69
2023/08/22 08:22:52;;;;;;;6.75;5.28;;;;;;;;;;4976401;28;20027;-69
2023/08/22 08:25:18;;;;;;;11.32;5.82;;;;;;;;;;4975845;28;20027;-69
2023/08/22 08:27:44;;;;;;;9.98;5.45;;;;;;;;;;4975660;28;20042;-69
2023/08/22 08:30:12;;;;;;;12.05;5.25;;;;;;;;;;4975375;28;20522;-69
2023/08/22 08:32:38;;;;;;;10.90;5.78;;;;;;;;;;4974712;28;20069;-69
2023/08/22 08:35:06;;;;;;;9.57;5.20;;;;;;;;;;4976106;28;20035;-69
2023/08/22 08:37:33;;;;;;;15.73;5.80;;;;;;;;;;4976049;28;20033;-69
2023/08/22 08:39:59;;;;;;;7.38;5.55;;;;;;;;;;4976440;28;20018;-69
2023/08/22 08:42:26;;;;;;;6.90;5.68;;;;;;;;;;4976185;28;20027;-69
2023/08/22 08:44:52;;;;;;;11.48;5.40;;;;;;;;;;4976012;28;20022;-69
2023/08/22 08:47:18;;;;;;;13.90;5.40;;;;;;;;;;4975897;28;20043;-69
2023/08/22 08:49:45;;;;;;;15.68;5.22;;;;;;;;;;4976354;28;20035;-69
2023/08/22 08:52:12;;;;;;;10.32;4.93;;;;;;;;;;4975680;28;20022;-69
2023/08/22 08:54:39;;;;;;;9.23;5.47;;;;;;;;;;4975751;28;20030;-69
2023/08/22 08:57:05;;;;;;;7.82;5.10;;;;;;;;;;4975209;28;20530;-69
2023/08/22 08:59:32;;;;;;;12.48;4.85;;;;;;;;;;4975602;28;20037;-69
2023/08/22 09:02:02;;;;;;;10.20;5.10;;;;;;;;;;4975608;28;20035;-69
2023/08/22 09:04:29;;;;;;;10.30;5.05;;;;;;;;;;4975395;28;20395;-69
2023/08/22 09:06:55;;;;;;;10.75;5.03;;;;;;;;;;4975483;28;20035;-69
2023/08/22 09:09:21;;;;;;;10.48;5.10;;;;;;;;;;4975480;28;20468;-69
2023/08/22 09:11:50;;;;;;;12.45;5.03;;;;;;;;;;4968080;28;20022;-69
2023/08/22 09:14:20;;;;;;;9.02;4.78;;;;;;;;;;4975444;28;20037;-69
2023/08/22 09:16:46;;;;;;;9.15;4.97;;;;;;;;;;4975214;28;20031;-69
2023/08/22 09:19:13;;;;;;;11.43;4.88;;;;;;;;;;4974778;28;20031;-69
2023/08/22 09:21:39;;;;;;;7.72;5.35;;;;;;;;;;4975188;28;20484;-69
2023/08/22 09:24:10;;;;;;;11.48;5.18;;;;;;;;;;4975208;28;20472;-69
2023/08/22 09:26:37;;;;;;;11.30;5.10;;;;;;;;;;4974617;28;20030;-69
2023/08/22 09:29:07;;;;;;;9.45;4.40;;;;;;;;;;4975848;28;20033;-69
2023/08/22 09:31:34;;;;;;;15.38;4.72;;;;;;;;;;4974762;28;20019;-67
2023/08/22 09:34:06;;;;;;;7.20;4.28;;;;;;;;;;4974674;28;20038;-67
2023/08/22 09:36:32;;;;;;;11.40;4.50;;;;;;;;;;4975143;28;20033;-69
2023/08/22 09:38:58;;;;;;;9.70;4.53;;;;;;;;;;4975130;28;20031;-66
2023/08/22 09:41:29;;;;;;;6.72;4.00;;;;;;;;;;4974339;28;20034;-67
2023/08/22 09:44:02;;;;;;;11.88;4.20;;;;;;;;;;4974817;28;20496;-67
2023/08/22 09:46:30;;;;;;;12.30;4.00;;;;;;;;;;4974492;28;20042;-67
2023/08/22 09:48:57;;;;;;;7.95;3.95;;;;;;;;;;4974362;28;20027;-67
2023/08/22 09:51:24;;;;;;;14.13;4.15;;;;;;;;;;4974310;28;20027;-67
2023/08/22 09:53:51;;;;;;;9.07;4.10;;;;;;;;;;4973728;28;20042;-67
2023/08/22 09:56:18;;;;;;;13.48;3.78;;;;;;;;;;4974204;28;20057;-67
2023/08/22 09:58:45;;;;;;;5.00;3.47;;;;;;;;;;4974352;28;20031;-67
2023/08/22 10:01:16;;;;;;;10.02;3.55;;;;;;;;;;4956717;28;20041;-67
2023/08/22 10:03:46;;;;;;;16.75;3.60;;;;;;;;;;4974214;28;20033;-67
2023/08/22 10:06:13;;;;;;;9.57;3.75;;;;;;;;;;4974453;28;20049;-67
2023/08/22 10:08:42;;;;;;;5.63;3.47;;;;;;;;;;4974410;28;20038;-68
2023/08/22 10:11:10;;;;;;;10.95;3.75;;;;;;;;;;4974310;28;20019;-67
2023/08/22 10:13:38;;;;;;;7.75;3.00;;;;;;;;;;4974357;28;20035;-67
2023/08/22 10:16:04;;;;;;;5.43;3.33;;;;;;;;;;4974435;28;20027;-67
2023/08/22 10:18:31;;;;;;;7.78;3.10;;;;;;;;;;4974599;28;20019;-67
2023/08/22 10:20:57;;;;;;;7.28;3.05;;;;;;;;;;4974253;28;20419;-67
2023/08/22 10:23:42;;;;;;;6.60;2.80;;;;;;;;;;4974191;28;20029;-66
2023/08/22 10:26:09;;;;;;;4.95;3.00;;;;;;;;;;4973033;28;20022;-67
2023/08/22 10:28:41;;;;;;;14.52;3.38;;;;;;;;;;4974321;28;20041;-67
2023/08/22 10:31:08;;;;;;;10.50;3.33;;;;;;;;;;4973934;28;20031;-67
2023/08/22 10:33:34;;;;;;;6.78;3.08;;;;;;;;;;4974184;28;20026;-67
2023/08/22 10:36:17;;;;;;;10.18;3.10;;;;;;;;;;4974523;28;20031;-67
2023/08/22 10:39:00;;;;;;;8.23;2.92;;;;;;;;;;4973642;28;20038;-67
2023/08/22 10:41:45;;;;;;;6.03;3.25;;;;;;;;;;4974185;28;20099;-67
2023/08/22 10:44:18;;;;;;;8.68;2.92;;;;;;;;;;4974106;28;20027;-67
2023/08/22 10:47:05;;;;;;;6.32;2.88;;;;;;;;;;4973938;28;20035;-67
2023/08/22 10:49:32;;;;;;;11.63;3.03;;;;;;;;;;4974286;28;20059;-66
2023/08/22 10:52:11;;;;;;;7.25;2.67;;;;;;;;;;4974310;28;20025;-67
2023/08/22 10:54:57;;;;;;;5.55;2.65;;;;;;;;;;4973777;28;20019;-67
2023/08/22 10:57:24;;;;;;;5.18;2.63;;;;;;;;;;4974314;28;20031;-67
2023/08/22 11:00:00;;;;;;;10.00;3.00;;;;;;;;;;4974419;28;20088;-67
2023/08/22 11:02:30;;;;;;;12.95;2.90;;;;;;;;;;4973800;28;20062;-67
2023/08/22 11:04:57;;;;;;;8.77;2.90;;;;;;;;;;4973890;28;20051;-67
2023/08/22 11:07:27;;;;;;;19.75;3.20;;;;;;;;;;4973157;28;20101;-67
2023/08/22 11:09:54;;;;;;;3.97;2.50;;;;;;;;;;4973955;28;20484;-67
2023/08/22 11:12:21;;;;;;;7.90;2.80;;;;;;;;;;4973893;28;20034;-67
2023/08/22 11:14:48;;;;;;;6.72;2.80;;;;;;;;;;4972432;28;20023;-67
2023/08/22 11:17:15;;;;;;;5.20;2.80;;;;;;;;;;4973822;28;20433;-67
2023/08/22 11:19:42;;;;;;;3.15;2.50;;;;;;;;;;4973838;28;20031;-67
2023/08/22 11:22:09;;;;;;;4.72;2.53;;;;;;;;;;4973240;28;20504;-67
2023/08/22 11:24:35;;;;;;;5.53;2.95;;;;;;;;;;4973820;28;20033;-65
2023/08/22 11:27:03;;;;;;;15.13;3.00;;;;;;;;;;4973863;28;20035;-67
2023/08/22 11:29:30;;;;;;;5.35;2.40;;;;;;;;;;4973624;28;20041;-67
2023/08/22 11:31:56;;;;;;;6.55;2.88;;;;;;;;;;4973693;28;20027;-67
2023/08/22 11:34:23;;;;;;;5.70;2.80;;;;;;;;;;4973508;28;20037;-67
2023/08/22 11:36:49;;;;;;;14.38;2.97;;;;;;;;;;4973103;28;20422;-67
2023/08/22 11:39:15;;;;;;;5.07;2.95;;;;;;;;;;4970541;28;20041;-68
2023/08/22 11:41:42;;;;;;;5.15;2.42;;;;;;;;;;4972840;28;20399;-67
2023/08/22 11:44:15;;;;;;;3.33;2.25;;;;;;;;;;4973225;28;20369;-67
2023/08/22 11:46:41;;;;;;;5.53;3.00;;;;;;;;;;4972585;28;20048;-66
2023/08/22 11:49:08;;;;;;;6.25;2.80;;;;;;;;;;4973168;28;20077;-67
2023/08/22 11:51:34;;;;;;;7.47;2.60;;;;;;;;;;4977051;28;20038;-67
2023/08/22 11:54:01;;;;;;;6.82;2.70;;;;;;;;;;4976374;28;20053;-66
2023/08/22 11:56:27;;;;;;;8.32;3.00;;;;;;;;;;4977111;28;20023;-67
2023/08/22 11:58:53;;;;;;;7.03;2.90;;;;;;;;;;4976938;28;20402;-66
2023/08/22 12:01:23;;;;;;;7.40;2.50;;;;;;;;;;4977005;28;20522;-67
2023/08/22 12:03:49;;;;;;;9.40;2.70;;;;;;;;;;4977265;28;20029;-67
2023/08/22 12:06:16;;;;;;;9.77;2.95;;;;;;;;;;4975983;28;20049;-66
2023/08/22 12:08:43;;;;;;;4.35;2.50;;;;;;;;;;4976363;28;20517;-67
2023/08/22 12:11:22;;;;;;;6.78;2.72;;;;;;;;;;4976000;28;20030;-67
2023/08/22 12:13:48;;;;;;;8.10;2.80;;;;;;;;;;4976855;28;20049;-67
2023/08/22 12:16:15;;;;;;;6.18;2.35;;;;;;;;;;4977168;28;20045;-67
2023/08/22 12:18:42;;;;;;;7.70;2.65;;;;;;;;;;4976343;28;20025;-67
2023/08/22 12:21:08;;;;;;;5.93;2.92;;;;;;;;;;4976264;28;20037;-67
2023/08/22 12:23:35;;;;;;;8.30;2.60;;;;;;;;;;4975380;28;20035;-67
2023/08/22 12:26:01;;;;;;;6.60;2.58;;;;;;;;;;4976696;28;20039;-67
2023/08/22 12:28:28;;;;;;;6.38;2.63;;;;;;;;;;4976007;28;20042;-67
2023/08/22 12:30:54;;;;;;;6.10;2.55;;;;;;;;;;4976296;28;20023;-66
2023/08/22 12:33:20;;;;;;;3.00;2.22;;;;;;;;;;4975965;28;20019;-66
2023/08/22 12:35:47;;;;;;;6.15;3.00;;;;;;;;;;4975628;28;20487;-67
2023/08/22 12:38:13;;;;;;;8.73;2.83;;;;;;;;;;4975840;28;20476;-67
2023/08/22 12:40:40;;;;;;;5.45;2.40;;;;;;;;;;4976414;28;20031;-67
2023/08/22 12:43:06;;;;;;;3.58;2.35;;;;;;;;;;4976194;28;20480;-67
2023/08/22 12:45:32;;;;;;;5.15;2.35;;;;;;;;;;4976309;28;20042;-67
2023/08/22 12:47:58;;;;;;;9.55;2.17;;;;;;;;;;4975977;28;20037;-66
2023/08/22 12:50:25;;;;;;;5.22;2.13;;;;;;;;;;4975969;28;20073;-67
2023/08/22 12:52:51;;;;;;;3.20;1.80;;;;;;;;;;4975316;28;20035;-65
2023/08/22 12:55:20;;;;;;;4.35;1.98;;;;;;;;;;4976211;28;20031;-66
2023/08/22 12:57:46;;;;;;;7.33;2.00;;;;;;;;;;4975989;28;20027;-66
2023/08/22 13:00:13;;;;;;;3.28;2.22;;;;;;;;;;4976306;28;20029;-66
2023/08/22 13:02:40;;;;;;;3.88;2.20;;;;;;;;;;4975057;28;20484;-66
2023/08/22 13:05:07;;;;;;;4.25;1.98;;;;;;;;;;4975055;28;20038;-67
2023/08/22 13:07:34;;;;;;;5.43;2.28;;;;;;;;;;4975565;28;20037;-67
2023/08/22 13:10:00;;;;;;;4.03;1.98;;;;;;;;;;4975786;28;20033;-67
2023/08/22 13:12:27;;;;;;;3.08;1.75;;;;;;;;;;4975791;28;20066;-67
2023/08/22 13:14:53;;;;;;;4.65;1.73;;;;;;;;;;4975726;28;20019;-67
2023/08/22 13:17:19;;;;;;;3.38;1.90;;;;;;;;;;4975320;28;20030;-66
2023/08/22 13:19:46;;;;;;;3.60;1.80;;;;;;;;;;4974851;28;20088;-65
2023/08/22 13:22:12;;;;;;;3.67;1.80;;;;;;;;;;4975400;28;20022;-66
2023/08/22 13:24:38;;;;;;;5.78;1.80;;;;;;;;;;4975166;28;20104;-67
2023/08/22 13:27:05;;;;;;;4.15;2.20;;;;;;;;;;4975186;28;20041;-66
2023/08/22 13:29:31;;;;;;;5.45;1.70;;;;;;;;;;4974126;28;20034;-67
2023/08/22 13:31:57;;;;;;;7.43;1.55;;;;;;;;;;4975134;28;20037;-67
2023/08/22 13:34:24;;;;;;;4.03;1.40;;;;;;;;;;4975432;28;20469;-67
2023/08/22 13:36:50;;;;;;;3.20;1.60;;;;;;;;;;4975078;28;20019;-67
2023/08/22 13:39:16;;;;;;;2.60;1.17;;;;;;;;;;4975331;28;20041;-66
2023/08/22 13:41:43;;;;;;;4.63;1.67;;;;;;;;;;4974251;28;20383;-67
2023/08/22 13:44:09;;;;;;;1.95;1.30;;;;;;;;;;4974350;28;20038;-66
2023/08/22 13:46:35;;;;;;;1.80;1.40;;;;;;;;;;4974316;28;20027;-67
2023/08/22 13:49:02;;;;;;;4.35;1.60;;;;;;;;;;4972482;28;20423;-67
2023/08/22 13:51:28;;;;;;;2.28;1.67;;;;;;;;;;4973710;28;20372;-67
2023/08/22 13:53:54;;;;;;;1.65;1.40;;;;;;;;;;4974229;28;20023;-67
2023/08/22 13:56:22;;;;;;;3.50;1.65;;;;;;;;;;4971887;28;20495;-66
2023/08/22 13:58:49;;;;;;;3.60;1.63;;;;;;;;;;4974462;28;20178;-67
2023/08/22 14:01:15;;;;;;;4.97;1.63;;;;;;;;;;4974589;28;20053;-67
2023/08/22 14:03:41;;;;;;;3.83;1.58;;;;;;;;;;4974449;28;20029;-67
2023/08/22 14:06:08;;;;;;;7.47;1.70;;;;;;;;;;4974472;28;20039;-67
2023/08/22 14:08:34;;;;;;;2.22;1.70;;;;;;;;;;4974407;28;20525;-67
2023/08/22 14:11:00;;;;;;;1.83;1.58;;;;;;;;;;4974249;28;20035;-67
2023/08/22 14:13:26;;;;;;;3.30;2.03;;;;;;;;;;4973415;28;20030;-67
2023/08/22 14:15:53;;;;;;;6.45;1.65;;;;;;;;;;4970661;28;20018;-67
2023/08/22 14:18:19;;;;;;;3.20;1.42;;;;;;;;;;4974002;28;20026;-67
2023/08/22 14:20:46;;;;;;;3.88;1.60;;;;;;;;;;4974271;28;20034;-67
2023/08/22 14:23:12;;;;;;;2.53;1.60;;;;;;;;;;4974298;28;20027;-67
2023/08/22 14:25:39;;;;;;;4.10;1.27;;;;;;;;;;4974218;28;20488;-67
2023/08/22 14:28:06;;;;;;;3.17;1.52;;;;;;;;;;4974047;28;20019;-67
2023/08/22 14:30:33;;;;;;;3.28;1.35;;;;;;;;;;4962649;28;20029;-66
2023/08/22 14:32:59;;;;;;;3.35;1.60;;;;;;;;;;4969861;28;20035;-67
2023/08/22 14:35:39;;;;;;;6.88;1.58;;;;;;;;;;5110247;27;20750;-66
2023/08/22 14:38:05;;;;;;;3.42;1.60;;;;;;;;;;5108898;28;20022;-66
2023/08/22 14:40:32;;;;;;;4.43;1.60;;;;;;;;;;5110140;28;20031;-66